| time (UTC) | temp F | wind direction | speed MPH | gust MPH | rain 1hr in | rain 24hr in | rain mn in | humidity % | barometer mb |
| 20260504184528 | 65 | 257 | 3.0 | 6.0 | 0.00 | 0.00 | 0.00 | 74 | 1009.2 |
| 20260504183249 | 64 | 241 | 3.0 | 5.0 | 0.00 | 0.00 | 0.00 | 71 | 1009.4 |
| 20260504183104 | 64 | 274 | 3.0 | 6.0 | 0.00 | 0.00 | 0.00 | 70 | 1009.2 |
| 20260504181544 | 63 | 266 | 3.0 | 5.0 | 0.00 | 0.00 | 0.00 | 74 | 1009.2 |
| 20260504180236 | 63 | 252 | 4.0 | 7.0 | 0.00 | 0.00 | 0.00 | 71 | 1009.3 |
| 20260504180024 | 62 | 259 | 3.0 | 5.0 | 0.00 | 0.00 | 0.00 | 75 | 1009.2 |
| 20260504174537 | 62 | 255 | 3.0 | 6.0 | 0.00 | 0.00 | 0.00 | 73 | 1009.2 |
| 20260504173226 | 62 | 255 | 4.0 | 6.0 | 0.00 | 0.00 | 0.00 | 75 | 1009.4 |
| 20260504173014 | 62 | 269 | 4.0 | 6.0 | 0.00 | 0.00 | 0.00 | 75 | 1009.2 |
| 20260504171525 | 61 | 276 | 3.0 | 5.0 | 0.00 | 0.00 | 0.00 | 77 | 1009.2 |
| 20260504170232 | 61 | 253 | 3.0 | 5.0 | 0.00 | 0.00 | 0.00 | 80 | 1009.5 |
| 20260504160255 | 62 | 269 | 2.0 | 3.0 | 0.00 | 0.00 | 0.00 | 68 | 1009.4 |
| 20260504150226 | 61 | 258 | 1.0 | 2.0 | 0.00 | 0.00 | 0.00 | 75 | 1009.4 |
| 20260504140239 | 59 | 283 | 0.0 | 0.0 | 0.00 | 0.00 | 0.00 | 73 | 1008.9 |
| 20260504130235 | 58 | 32 | 0.0 | 0.0 | 0.00 | 0.00 | 0.00 | 74 | 1008.5 |
| 20260504120251 | 58 | 52 | 0.0 | 0.0 | 0.00 | 0.00 | 0.00 | 75 | 1008.4 |
| 20260504110223 | 58 | 17 | 0.0 | 0.0 | 0.00 | 0.00 | 0.00 | 73 | 1008.4 |
| 20260504100257 | 60 | 113 | 0.0 | 1.0 | 0.00 | 0.00 | 0.00 | 70 | 1008.3 |
| 20260504081527 | 58 | 108 | 0.0 | 0.0 | 0.00 | 0.00 | 0.00 | 77 | 1007.9 |
| 20260504080232 | 58 | 32 | 0.0 | 0.0 | 0.00 | 0.00 | 0.00 | 77 | 1008.0 |
| 20260504070222 | 58 | 25 | 0.0 | 0.0 | 0.00 | 0.00 | 0.00 | 80 | 1007.8 |
| 20260504060227 | 57 | 288 | 0.0 | 0.0 | 0.00 | 0.00 | 0.00 | 86 | 1007.8 |
| 20260504050241 | 60 | 288 | 0.0 | 0.0 | 0.00 | 0.00 | 0.00 | 77 | 1008.1 |
| 20260504050001 | 59 | 288 | 0.0 | 0.0 | 0.00 | 0.00 | 0.00 | 77 | 1008.0 |
| 20260504044548 | 59 | 284 | 0.0 | 0.0 | 0.00 | 0.00 | 0.00 | 80 | 1008.0 |
| 20260504043226 | 59 | 274 | 0.0 | 0.0 | 0.00 | 0.00 | 0.00 | 80 | 1008.1 |
| 20260504043048 | 59 | 280 | 0.0 | 0.0 | 0.00 | 0.00 | 0.00 | 81 | 1007.9 |
| 20260504041600 | 58 | 280 | 0.0 | 0.0 | 0.00 | 0.00 | 0.00 | 82 | 1007.9 |
| 20260504040229 | 59 | 280 | 0.0 | 0.0 | 0.00 | 0.00 | 0.00 | 81 | 1008.0 |
| 20260504040126 | 59 | 280 | 0.0 | 0.0 | 0.00 | 0.00 | 0.00 | 81 | 1007.9 |
| 20260504034533 | 59 | 280 | 0.0 | 0.0 | 0.00 | 0.00 | 0.00 | 79 | 1007.8 |
| 20260504033239 | 60 | 266 | 0.0 | 0.0 | 0.00 | 0.00 | 0.00 | 79 | 1008.0 |
| 20260504033033 | 60 | 265 | 0.0 | 0.0 | 0.00 | 0.00 | 0.00 | 79 | 1007.9 |
| 20260504031555 | 62 | 264 | 0.0 | 0.0 | 0.00 | 0.00 | 0.00 | 76 | 1007.9 |
| 20260504030226 | 63 | 264 | 0.0 | 0.0 | 0.00 | 0.00 | 0.00 | 74 | 1008.0 |
| 20260504030012 | 63 | 264 | 0.0 | 0.0 | 0.00 | 0.00 | 0.00 | 74 | 1007.9 |
| 20260504024525 | 63 | 262 | 0.0 | 0.0 | 0.00 | 0.00 | 0.00 | 74 | 1008.0 |
| 20260504023234 | 65 | 277 | 0.0 | 2.0 | 0.00 | 0.00 | 0.00 | 72 | 1008.1 |
| 20260504023021 | 65 | 262 | 0.0 | 2.0 | 0.00 | 0.00 | 0.00 | 71 | 1008.0 |
| 20260504021533 | 66 | 264 | 0.0 | 0.0 | 0.00 | 0.00 | 0.00 | 69 | 1008.0 |
| 20260504020233 | 68 | 155 | 0.0 | 0.0 | 0.00 | 0.00 | 0.00 | 70 | 1008.3 |
| 20260504020003 | 67 | 174 | 0.0 | 0.0 | 0.00 | 0.00 | 0.00 | 69 | 1008.1 |
| 20260504014523 | 67 | 265 | 0.0 | 0.0 | 0.00 | 0.00 | 0.00 | 69 | 1008.4 |
| 20260504013229 | 68 | 248 | 0.0 | 0.0 | 0.00 | 0.00 | 0.00 | 69 | 1008.7 |
| 20260504013015 | 68 | 165 | 0.0 | 0.0 | 0.00 | 0.00 | 0.00 | 70 | 1008.5 |
| 20260504011559 | 67 | 250 | 0.0 | 0.0 | 0.00 | 0.00 | 0.00 | 71 | 1008.6 |
| 20260504010230 | 66 | 158 | 0.0 | 1.0 | 0.00 | 0.00 | 0.00 | 73 | 1008.9 |
| 20260504010056 | 66 | 158 | 0.0 | 1.0 | 0.00 | 0.00 | 0.00 | 74 | 1008.8 |
| 20260504004505 | 64 | 254 | 2.0 | 6.0 | 0.00 | 0.00 | 0.00 | 76 | 1009.0 |
| 20260504003243 | 64 | 257 | 4.0 | 5.0 | 0.00 | 0.00 | 0.00 | 74 | 1009.4 |
| 20260504003046 | 64 | 274 | 3.0 | 5.0 | 0.00 | 0.00 | 0.00 | 76 | 1009.2 |
| 20260504001601 | 64 | 264 | 2.0 | 5.0 | 0.00 | 0.00 | 0.00 | 76 | 1009.3 |
| 20260504000228 | 65 | 260 | 3.0 | 6.0 | 0.00 | 0.00 | 0.00 | 75 | 1009.6 |
| 20260504000053 | 65 | 264 | 1.0 | 6.0 | 0.00 | 0.00 | 0.00 | 76 | 1009.4 |
| 20260503234502 | 67 | 274 | 1.0 | 4.0 | 0.00 | 0.00 | 0.00 | 72 | 1009.7 |
| 20260503233224 | 68 | 195 | 0.0 | 3.0 | 0.00 | 0.00 | 0.00 | 72 | 1009.9 |
| 20260503233007 | 67 | 205 | 1.0 | 4.0 | 0.00 | 0.00 | 0.00 | 72 | 1009.8 |
| 20260503231514 | 68 | 264 | 2.0 | 7.0 | 0.00 | 0.00 | 0.00 | 68 | 1009.9 |
| 20260503230250 | 68 | 278 | 5.0 | 9.0 | 0.00 | 0.00 | 0.00 | 67 | 1010.2 |
| 20260503230033 | 68 | 273 | 3.0 | 7.0 | 0.00 | 0.00 | 0.00 | 68 | 1010.1 |
| 20260503224511 | 67 | 295 | 4.0 | 9.0 | 0.00 | 0.00 | 0.00 | 68 | 1010.3 |
| 20260503223227 | 67 | 297 | 4.0 | 11.0 | 0.00 | 0.00 | 0.00 | 68 | 1010.6 |
| 20260503223011 | 66 | 311 | 5.0 | 11.0 | 0.00 | 0.00 | 0.00 | 68 | 1010.6 |
| 20260503221558 | 66 | 262 | 4.0 | 8.0 | 0.00 | 0.00 | 0.00 | 72 | 1010.9 |
| 20260503220228 | 66 | 257 | 4.0 | 7.0 | 0.00 | 0.00 | 0.00 | 73 | 1011.1 |
| 20260503220051 | 65 | 258 | 5.0 | 7.0 | 0.00 | 0.00 | 0.00 | 73 | 1011.0 |
| 20260503214530 | 64 | 260 | 3.0 | 8.0 | 0.00 | 0.00 | 0.00 | 75 | 1011.2 |
| 20260503213231 | 65 | 257 | 6.0 | 8.0 | 0.00 | 0.00 | 0.00 | 74 | 1011.4 |
| 20260503213027 | 65 | 228 | 4.0 | 7.0 | 0.00 | 0.00 | 0.00 | 73 | 1011.2 |
| 20260503211539 | 68 | 269 | 3.0 | 10.0 | 0.00 | 0.00 | 0.00 | 69 | 1011.4 |
| 20260503210236 | 69 | 302 | 5.0 | 13.0 | 0.00 | 0.00 | 0.00 | 65 | 1011.6 |
| 20260503210027 | 68 | 272 | 4.0 | 13.0 | 0.00 | 0.00 | 0.00 | 66 | 1011.5 |
| 20260503204558 | 67 | 257 | 4.0 | 10.0 | 0.00 | 0.00 | 0.00 | 67 | 1011.8 |
| 20260503203224 | 66 | 255 | 6.0 | 9.0 | 0.00 | 0.00 | 0.00 | 71 | 1012.1 |
| 20260503203059 | 65 | 266 | 6.0 | 9.0 | 0.00 | 0.00 | 0.00 | 68 | 1012.0 |
| 20260503201505 | 65 | 276 | 3.0 | 6.0 | 0.00 | 0.00 | 0.00 | 71 | 1012.1 |
| 20260503200220 | 65 | 264 | 3.0 | 7.0 | 0.00 | 0.00 | 0.00 | 74 | 1012.5 |
| 20260503200003 | 65 | 220 | 2.0 | 7.0 | 0.00 | 0.00 | 0.00 | 74 | 1012.4 |
| 20260503194515 | 64 | 266 | 5.0 | 8.0 | 0.00 | 0.00 | 0.00 | 70 | 1012.5 |
| 20260503193248 | 64 | 252 | 5.0 | 9.0 | 0.00 | 0.00 | 0.00 | 71 | 1012.9 |
| 20260503193059 | 64 | 270 | 5.0 | 9.0 | 0.00 | 0.00 | 0.00 | 70 | 1012.8 |
| 20260503191506 | 64 | 262 | 5.0 | 8.0 | 0.00 | 0.00 | 0.00 | 72 | 1012.7 |
| 20260503190240 | 63 | 274 | 5.0 | 8.0 | 0.00 | 0.00 | 0.00 | 74 | 1013.1 |
| 20260503190041 | 63 | 268 | 4.0 | 8.0 | 0.00 | 0.00 | 0.00 | 74 | 1012.9 |